Map

Track Data

SID SEASON NUMBER BASIN SUBBASIN NAME ISO_TIME NATURE LAT LON WMO_WIND WMO_PRES WMO_AGENCY TRACK_TYPE DIST2LAND LANDFALL IFLAG USA_AGENCY USA_ATCF_ID USA_LAT USA_LON USA_RECORD USA_STATUS USA_WIND USA_PRES USA_SSHS USA_R34_NE USA_R34_SE USA_R34_SW USA_R34_NW USA_R50_NE USA_R50_SE USA_R50_SW USA_R50_NW USA_R64_NE USA_R64_SE USA_R64_SW USA_R64_NW USA_POCI USA_ROCI USA_RMW USA_EYE TOKYO_LAT TOKYO_LON TOKYO_GRADE TOKYO_WIND TOKYO_PRES TOKYO_R50_DIR TOKYO_R50_LONG TOKYO_R50_SHORT TOKYO_R30_DIR TOKYO_R30_LONG TOKYO_R30_SHORT TOKYO_LAND CMA_LAT CMA_LON CMA_CAT CMA_WIND CMA_PRES HKO_LAT HKO_LON HKO_CAT HKO_WIND HKO_PRES NEWDELHI_LAT NEWDELHI_LON NEWDELHI_GRADE NEWDELHI_WIND NEWDELHI_PRES NEWDELHI_CI NEWDELHI_DP NEWDELHI_POCI REUNION_LAT REUNION_LON REUNION_TYPE REUNION_WIND REUNION_PRES REUNION_TNUM REUNION_CI REUNION_RMW REUNION_R34_NE REUNION_R34_SE REUNION_R34_SW REUNION_R34_NW REUNION_R50_NE REUNION_R50_SE REUNION_R50_SW REUNION_R50_NW REUNION_R64_NE REUNION_R64_SE REUNION_R64_SW REUNION_R64_NW BOM_LAT BOM_LON BOM_TYPE BOM_WIND BOM_PRES BOM_TNUM BOM_CI BOM_RMW BOM_R34_NE BOM_R34_SE BOM_R34_SW BOM_R34_NW BOM_R50_NE BOM_R50_SE BOM_R50_SW BOM_R50_NW BOM_R64_NE BOM_R64_SE BOM_R64_SW BOM_R64_NW BOM_ROCI BOM_POCI BOM_EYE BOM_POS_METHOD BOM_PRES_METHOD NADI_LAT NADI_LON NADI_CAT NADI_WIND NADI_PRES WELLINGTON_LAT WELLINGTON_LON WELLINGTON_WIND WELLINGTON_PRES DS824_LAT DS824_LON DS824_STAGE DS824_WIND DS824_PRES TD9636_LAT TD9636_LON TD9636_STAGE TD9636_WIND TD9636_PRES TD9635_LAT TD9635_LON TD9635_WIND TD9635_PRES TD9635_ROCI NEUMANN_LAT NEUMANN_LON NEUMANN_CLASS NEUMANN_WIND NEUMANN_PRES MLC_LAT MLC_LON MLC_CLASS MLC_WIND MLC_PRES USA_GUST BOM_GUST BOM_GUST_PER REUNION_GUST REUNION_GUST_PER USA_SEAHGT USA_SEARAD_NE USA_SEARAD_SE USA_SEARAD_SW USA_SEARAD_NW STORM_SPEED STORM_DIR
1949264N16154 1949 82 WP MM NOT_NAMED 1949-09-21 06:00:00 TS 16.3000 154.000 main 2155 2155 __O___________ -1 16.3000 154.000 0 1004 9 3
1949264N16154 1949 82 WP MM NOT_NAMED 1949-09-21 09:00:00 TS 16.7400 154.000 main 2199 2199 __P___________ -1 16.7400 154.000 0 1003 9 0
1949264N16154 1949 82 WP MM NOT_NAMED 1949-09-21 12:00:00 TS 17.2000 154.000 main 2254 2254 __O___________ -1 17.2000 154.000 0 1003 10 2
1949264N16154 1949 82 WP MM NOT_NAMED 1949-09-21 15:00:00 TS 17.6925 154.000 main 2310 2310 __P___________ -1 17.6925 154.000 0 1002 10 1
1949264N16154 1949 82 WP MM NOT_NAMED 1949-09-21 18:00:00 TS 18.2000 154.000 main 2323 2276 __O___________ -1 18.2000 154.000 0 1002 10 0
1949264N16154 1949 82 WP MM NOT_NAMED 1949-09-21 21:00:00 TS 18.7000 153.993 main 2276 2230 __P___________ -1 18.7000 153.993 0 1001 10 1
1949264N16154 1949 82 WP MM NOT_NAMED 1949-09-22 00:00:00 TS 19.2000 154.000 main 2230 2184 __O___________ -1 19.2000 154.000 0 1000 10 2
1949264N16154 1949 82 WP MM NOT_NAMED 1949-09-22 03:00:00 TS 19.6925 154.042 main 2184 2144 __P___________ -1 19.6925 154.042 0 1000 10 6
1949264N16154 1949 82 WP MM NOT_NAMED 1949-09-22 06:00:00 TS 20.2000 154.100 main 2144 2099 __O___________ -1 20.2000 154.100 0 1000 11 5
1949264N16154 1949 82 WP MM NOT_NAMED 1949-09-22 09:00:00 TS 20.7350 154.135 main 2099 2052 __P___________ -1 20.7350 154.135 0 1000 11 5
1949264N16154 1949 82 WP MM NOT_NAMED 1949-09-22 12:00:00 TS 21.3000 154.200 main 2052 2014 __O___________ -1 21.3000 154.200 0 1000 11 9
1949264N16154 1949 82 WP MM NOT_NAMED 1949-09-22 15:00:00 TS 21.8325 154.313 main 2014 1968 __P___________ -1 21.8325 154.313 0 1000 12 13
1949264N16154 1949 82 WP MM NOT_NAMED 1949-09-22 18:00:00 TS 22.5000 154.500 main 1968 1923 __O___________ -1 22.5000 154.500 1 23 1000 16 15
1949264N16154 1949 82 WP MM NOT_NAMED 1949-09-22 21:00:00 TS 23.3651 154.756 main 1913 1828 __P___________ -1 23.3651 154.756 1 23 999 54 30
1949264N16154 1949 82 WP MM NOT_NAMED 1949-09-23 00:00:00 TS 27.1500 157.450 main 1831 1796 O_O______OOO__ jtwc_wp WP151949 29.8000 159.800 20 -1 24.5000 155.100 1 23 999 29.8000 159.800 TC 20 29.8000 159.800 1 20 29.8000 159.800 20 1000 180 61 29
1949264N16154 1949 82 WP MM NOT_NAMED 1949-09-23 03:00:00 TS 28.6696 158.116 main 1790 1755 P_P______PPP__ WP151949 30.0127 159.410 25 -1 26.0078 155.548 1 23 998 30.0127 159.410 TC 25 29.9640 159.367 1 23 30.0127 159.410 25 999 210 25 16
1949264N16154 1949 82 WP MM NOT_NAMED 1949-09-23 06:00:00 TS 29.5122 158.238 main 1755 1722 O_O______OPO__ jtwc_wp WP151949 30.2000 159.000 30 -1 27.5000 156.000 1 23 997 30.2000 159.000 TC 30 30.1319 158.937 1 27 30.2000 159.000 30 998 240 13 359
1949264N16154 1949 82 WP MM NOT_NAMED 1949-09-23 09:00:00 TS 29.9916 158.108 main 1722 1681 P_P______PPP__ WP151949 30.3499 158.557 32 -1 28.5997 156.353 1 30 996 30.3499 158.557 TC 32 30.3088 158.513 1 31 30.3499 158.557 32 997 270 9 334
1949264N16154 1949 82 WP MM NOT_NAMED 1949-09-23 12:00:00 TS 30.2800 157.800 main 1681 1646 O_O______OOO__ jtwc_wp WP151949 30.5000 158.100 35 0 29.4000 156.600 2 38 995 30.5000 158.100 TC 35 30.5000 158.100 2 35 30.5000 158.100 35 996 300 8 316
1949264N16154 1949 82 WP MM NOT_NAMED 1949-09-23 15:00:00 TS 30.5450 157.484 main 1646 1606 P_P______PPP__ WP151949 30.6773 157.650 35 0 29.9823 156.775 2 38 994 30.6773 157.650 TC 35 30.7107 157.696 2 36 30.6773 157.650 35 995 330 8 313
1949264N16154 1949 82 WP MM NOT_NAMED 1949-09-23 18:00:00 TS 30.8090 157.136 main 1597 1557 O_O______OPO__ jtwc_wp WP151949 30.9000 157.200 35 0 30.4000 156.800 2 38 994 30.9000 157.200 TC 35 30.9452 157.280 2 37 30.9000 157.200 35 994 360 8 313
1949264N16154 1949 82 WP MM NOT_NAMED 1949-09-23 21:00:00 TS 31.1166 156.769 main 1557 1500 P_P______PPP__ WP151949 31.1844 156.787 37 0 30.8225 156.660 2 38 993 31.1844 156.787 TC 37 31.2072 156.824 2 38 31.1844 156.787 37 993 360 9 312
1949264N16154 1949 82 WP MM NOT_NAMED 1949-09-24 00:00:00 TS 31.4400 156.320 main 1500 1444 O_O______OOO__ jtwc_wp WP151949 31.5000 156.300 40 0 31.2000 156.400 2 38 993 31.5000 156.300 TC 40 31.5000 156.300 2 40 31.5000 156.300 40 993 360 11 304
1949264N16154 1949 82 WP MM NOT_NAMED 1949-09-24 03:00:00 TS 31.7275 155.719 main 1435 1370 P_P______PPP__ WP151949 31.7852 155.637 40 0 31.5425 156.122 2 38 992 31.7852 155.637 TC 40 31.7396 155.564 2 40 31.7852 155.637 40 994 330 12 299
1949264N16154 1949 82 WP MM NOT_NAMED 1949-09-24 06:00:00 TS 32.0436 155.055 main 1370 1293 O_O______OPO__ jtwc_wp WP151949 32.1000 154.900 40 0 31.9000 155.800 2 38 992 32.1000 154.900 TC 40 32.0178 154.775 2 40 32.1000 154.900 40 996 300 13 301
1949264N16154 1949 82 WP MM NOT_NAMED 1949-09-24 09:00:00 TS 32.4025 154.385 main 1293 1225 P_P______PPP__ WP151949 32.4254 154.140 40 0 32.3500 155.458 2 38 991 32.4254 154.140 TC 40 32.3864 154.049 2 40 32.4254 154.140 40 996 330 13 309
1949264N16154 1949 82 WP MM NOT_NAMED 1949-09-24 12:00:00 TS 32.8800 153.820 main 1221 1166 O_O______OOO__ jtwc_wp WP151949 32.9000 153.500 40 0 32.8000 155.100 2 38 991 32.9000 153.500 TC 40 32.9000 153.500 2 40 32.9000 153.500 40 997 360 14 323
1949264N16154 1949 82 WP MM NOT_NAMED 1949-09-24 15:00:00 TS 33.5140 153.405 main 1166 1127 P_P______PPP__ WP151949 33.6170 153.059 37 0 33.0827 154.690 2 43 990 33.6170 153.059 TC 37 33.6363 153.156 2 38 33.6170 153.059 37 997 390 15 341
1949264N16154 1949 82 WP MM NOT_NAMED 1949-09-24 18:00:00 TS 34.3034 153.223 main 1127 1093 O_O______OPO__ jtwc_wp WP151949 34.5000 152.900 35 0 33.5000 154.400 3 48 990 34.5000 152.900 TC 35 34.5169 153.016 2 37 34.5000 152.900 35 997 420 17 356
1949264N16154 1949 82 WP MM NOT_NAMED 1949-09-24 21:00:00 TS 35.2092 153.266 main 1096 1048 P_P______PPP__ WP151949 35.4492 152.993 35 0 34.2338 154.261 3 48 990 35.4492 152.993 TC 35 35.4642 153.092 2 36 35.4492 152.993 35 996 390 19 10
1949264N16154 1949 82 WP MM NOT_NAMED 1949-09-25 00:00:00 TS 36.1800 153.620 main 1040 1001 O_O______OOO__ jtwc_wp WP151949 36.4000 153.400 35 0 35.3000 154.500 3 48 990 36.4000 153.400 TC 35 36.4000 153.400 2 35 36.4000 153.400 35 996 360 21 23
1949264N16154 1949 82 WP MM NOT_NAMED 1949-09-25 03:00:00 TS 37.1327 154.276 main 1007 955 P_P______PPP__ WP151949 37.2305 154.067 37 0 36.7743 155.321 3 48 990 37.2305 154.067 TC 37 37.1977 153.857 2 35 37.2305 154.067 37 996 360 22 33
1949264N16154 1949 82 WP MM NOT_NAMED 1949-09-25 06:00:00 MX 38.0338 155.130 main 955 910 O_O______OPO__ jtwc_wp WP151949 38.0000 154.900 40 0 38.2000 156.400 9 48 990 38.0000 154.900 TC 40 37.9688 154.550 2 35 38.0000 154.900 40 996 360 21 38
1949264N16154 1949 82 WP MM NOT_NAMED 1949-09-25 09:00:00 MX 38.8069 155.912 main 910 886 P_P______PPP__ WP151949 38.7553 155.622 37 0 39.0383 157.250 9 48 990 38.7553 155.622 TC 37 38.7304 155.444 2 35 38.7553 155.622 37 996 330 20 41
1949264N16154 1949 82 WP MM NOT_NAMED 1949-09-25 12:00:00 MX 39.5400 156.820 main 891 880 O_O______OOO__ jtwc_wp WP151949 39.5000 156.500 35 0 39.7000 158.100 9 48 990 39.5000 156.500 TC 35 39.5000 156.500 2 35 39.5000 156.500 35 996 300 22 47
1949264N16154 1949 82 WP MM NOT_NAMED 1949-09-25 15:00:00 MX 40.3064 157.983 main 887 884 P_P______PPP__ WP151949 40.2356 157.719 35 0 40.5345 159.071 9 48 990 40.2356 157.719 TC 35 40.2906 157.686 2 36 40.2356 157.719 35 996 270 24 50
1949264N16154 1949 82 WP MM NOT_NAMED 1949-09-25 18:00:00 MX 41.0993 159.291 main 903 903 O_O______OPO__ jtwc_wp WP151949 41.0000 159.100 35 0 41.4000 160.100 9 48 990 41.0000 159.100 TC 35 41.0953 158.979 2 37 41.0000 159.100 35 997 240 26 49
1949264N16154 1949 82 WP MM NOT_NAMED 1949-09-25 21:00:00 MX 41.9694 160.563 main 930 930 P_P______PPP__ WP151949 41.8925 160.412 37 0 42.2334 161.117 9 48 990 41.8925 160.412 TC 37 41.9022 160.359 2 38 41.8925 160.412 37 997 240 26 49
1949264N16154 1949 82 WP MM NOT_NAMED 1949-09-26 00:00:00 MX 42.8143 161.914 main 939 921 O_O______OOO__ jtwc_wp WP151949 42.7000 161.800 40 0 43.1000 162.200 9 48 990 42.7000 161.800 TC 40 42.7000 161.800 2 40 42.7000 161.800 40 998 240 26 52
1949264N16154 1949 82 WP MM NOT_NAMED 1949-09-26 03:00:00 MX 43.5825 163.380 main 925 921 P_P______P_P__ WP151949 43.2400 163.312 37 0 44.0964 163.483 9 48 990 43.2400 163.312 TC 37 2 43.2400 163.312 37 998 240 26 53
1949264N16154 1949 82 WP MM NOT_NAMED 1949-09-26 06:00:00 MX 44.4000 164.786 main 926 875 O_O______O_O__ jtwc_wp WP151949 43.6000 164.900 35 0 45.0000 164.700 9 48 990 43.6000 164.900 TC 35 2 43.6000 164.900 35 999 240 25 38
1949264N16154 1949 82 WP MM NOT_NAMED 1949-09-26 09:00:00 ET 45.5998 165.560 main 871 858 __P___________ WP151949 -1 45.5998 165.560 9 990 TC 2 20 32
1949264N16154 1949 82 WP MM NOT_NAMED 1949-09-26 12:00:00 ET 46.1000 166.300 main 863 857 __O___________ -1 46.1000 166.300 9 991 15 45
1949264N16154 1949 82 WP MM NOT_NAMED 1949-09-26 15:00:00 ET 46.6746 167.101 main 858 851 __P___________ -1 46.6746 167.101 9 991 17 46
1949264N16154 1949 82 WP MM NOT_NAMED 1949-09-26 18:00:00 ET 47.3000 168.100 main 856 852 __O___________ -1 47.3000 168.100 9 992 21 52
1949264N16154 1949 82 WP MM NOT_NAMED 1949-09-26 21:00:00 ET 47.9793 169.525 main 868 868 __P___________ -1 47.9793 169.525 9 993 24 55
1949264N16154 1949 82 WP MM NOT_NAMED 1949-09-27 00:00:00 ET 48.7000 171.100 main 906 906 __O___________ -1 48.7000 171.100 9 994 25 54
1949264N16154 1949 82 WP MM NOT_NAMED 1949-09-27 03:00:00 ET 49.4507 172.619 main 915 915 __P___________ -1 49.4507 172.619 9 995 24 51
1949264N16154 1949 82 WP MM NOT_NAMED 1949-09-27 06:00:00 ET 50.2000 173.900 main 937 935 __O___________ -1 50.2000 173.900 9 997 19 43
1949264N16154 1949 82 WP MM NOT_NAMED 1949-09-27 09:00:00 ET 50.8812 174.678 main 940 926 __P___________ -1 50.8812 174.678 9 998 17 32
1949264N16154 1949 82 WP MM NOT_NAMED 1949-09-27 12:00:00 ET 51.6000 175.300 main 926 903 __O___________ -1 51.6000 175.300 9 1000 18 31
1949264N16154 1949 82 WP MM NOT_NAMED 1949-09-27 15:00:00 ET 52.4211 176.152 main 905 839 __P___________ -1 52.4211 176.152 9 1001 21 34
1949264N16154 1949 82 WP MM NOT_NAMED 1949-09-27 18:00:00 ET 53.3000 177.200 main 842 __O___________ -1 53.3000 177.200 9 1002 22 35

Digital Typhoon Data and Search

About IBTrACS Database

This database is a web-friendly format of International Best Track Archive for Climate Stewardship (IBTrACS), a global best track data archive curated by NOAA dating back to 1842.

Updated: 2021-12-06